Time;durP1;ratioP1;P1;durP2;ratioP2;P2;SDS_P1;SDS_P2;PMS_P1;PMS_P2;Temp;Humidity;BMP_temperature;BMP_pressure;BME280_temperature;BME280_humidity;BME280_pressure;Samples;Min_cycle;Max_cycle;Signal;HPM_P1;HPM_P2
2022/05/30 00:00:00;;;;;;;4.65;3.90;;;;;;;15.57;100.00;93813.78;5076814;28;20199;-61
2022/05/30 00:02:26;;;;;;;6.82;4.45;;;;;;;15.53;100.00;93814.31;5094775;28;20177;-59
2022/05/30 00:04:52;;;;;;;8.50;4.35;;;;;;;15.66;100.00;93811.88;5095260;28;20188;-58
2022/05/30 00:07:17;;;;;;;6.05;3.95;;;;;;;15.67;100.00;93814.28;5094713;28;20183;-59
2022/05/30 00:09:43;;;;;;;6.25;4.28;;;;;;;15.61;100.00;93817.56;5093566;28;20203;-61
2022/05/30 00:12:09;;;;;;;8.05;4.38;;;;;;;15.55;100.00;93823.41;5076489;28;20183;-61
2022/05/30 00:14:34;;;;;;;6.18;4.22;;;;;;;15.62;100.00;93828.59;5094580;28;20589;-59
2022/05/30 00:17:01;;;;;;;4.93;4.15;;;;;;;15.43;100.00;93824.06;5094504;28;20176;-61
2022/05/30 00:19:26;;;;;;;6.75;4.47;;;;;;;15.32;100.00;93824.47;5094416;28;20291;-64
2022/05/30 00:21:55;;;;;;;6.15;4.30;;;;;;;15.14;100.00;93830.78;5094521;28;20192;-63
2022/05/30 00:24:20;;;;;;;6.30;3.97;;;;;;;15.22;100.00;93826.50;5094183;28;20234;-62
2022/05/30 00:26:46;;;;;;;8.68;4.75;;;;;;;15.32;100.00;93827.03;5094306;28;20713;-61
2022/05/30 00:29:11;;;;;;;6.55;4.70;;;;;;;15.43;100.00;93824.81;5094168;28;20563;-61
2022/05/30 00:31:36;;;;;;;4.75;4.20;;;;;;;15.45;100.00;93822.13;5094267;28;20234;-61
2022/05/30 00:34:02;;;;;;;7.28;4.85;;;;;;;15.80;100.00;93826.44;5075982;28;20184;-60
2022/05/30 00:36:28;;;;;;;6.05;4.53;;;;;;;15.82;100.00;93815.03;5094397;28;20192;-59
2022/05/30 00:38:55;;;;;;;6.03;4.63;;;;;;;15.65;100.00;93818.00;5094468;28;20677;-60
2022/05/30 00:41:21;;;;;;;8.73;4.68;;;;;;;15.49;100.00;93820.78;5092913;28;20338;-60
2022/05/30 00:43:47;;;;;;;8.32;4.65;;;;;;;15.62;100.00;93818.34;5075895;28;20219;-60
2022/05/30 00:46:15;;;;;;;7.18;5.15;;;;;;;15.54;100.00;93821.81;5094102;28;20192;-62
2022/05/30 00:48:55;;;;;;;6.05;5.10;;;;;;;15.62;100.00;93828.59;5075693;28;20208;-59
2022/05/30 00:51:31;;;;;;;10.50;4.97;;;;;;;15.40;100.00;93827.72;5093912;28;20173;-58
2022/05/30 00:53:58;;;;;;;5.20;4.60;;;;;;;15.50;100.00;93832.59;5070490;22;20228;-62
2022/05/30 00:56:28;;;;;;;6.97;5.22;;;;;;;15.51;100.00;93837.56;5073623;28;20177;-60
2022/05/30 00:58:53;;;;;;;6.45;5.00;;;;;;;15.55;100.00;93832.88;5073579;28;20545;-62
2022/05/30 01:01:20;;;;;;;6.28;4.65;;;;;;;15.57;100.00;93828.34;5073581;28;20169;-59
2022/05/30 01:06:35;;;;;;;5.68;4.72;;;;;;;15.62;100.00;93828.59;5073304;28;20168;-61
2022/05/30 01:09:13;;;;;;;10.07;5.43;;;;;;;15.65;100.00;93831.63;5073811;28;20548;-60
2022/05/30 01:11:56;;;;;;;6.38;4.90;;;;;;;15.66;100.00;93833.19;5055223;28;20218;-61
2022/05/30 01:14:25;;;;;;;5.82;4.95;;;;;;;15.63;100.00;93832.75;5073319;28;20205;-61
2022/05/30 01:16:50;;;;;;;4.30;3.90;;;;;;;15.67;100.00;93832.22;5073173;28;20609;-57
2022/05/30 01:19:47;;;;;;;4.53;4.13;;;;;;;15.55;100.00;93836.22;5073631;28;20196;-59
2022/05/30 01:22:24;;;;;;;7.25;5.28;;;;;;;15.59;100.00;93839.22;5073137;28;20177;-61
2022/05/30 01:25:14;;;;;;;6.07;4.72;;;;;;;15.64;100.00;93837.69;5055225;28;20219;-61
2022/05/30 01:28:07;;;;;;;7.93;4.95;;;;;;;15.56;100.00;93839.56;5073145;28;20201;-59
2022/05/30 01:30:35;;;;;;;6.75;5.28;;;;;;;15.57;100.00;93841.97;5073125;28;20200;-62
2022/05/30 01:33:01;;;;;;;6.10;4.72;;;;;;;15.81;100.00;93840.84;5072942;28;20197;-61
2022/05/30 01:35:27;;;;;;;5.47;4.93;;;;;;;15.76;100.00;93846.50;5072636;28;20188;-61
2022/05/30 01:37:56;;;;;;;7.60;5.85;;;;;;;15.46;100.00;93839.84;5072803;28;20662;-61
2022/05/30 01:40:21;;;;;;;11.05;7.30;;;;;;;15.32;100.00;93844.97;5054676;28;20197;-62
2022/05/30 01:42:46;;;;;;;7.50;5.18;;;;;;;15.43;100.00;93836.88;5072962;28;20276;-61
2022/05/30 01:45:12;;;;;;;9.10;5.32;;;;;;;15.63;100.00;93837.88;5054989;28;20185;-62
2022/05/30 01:47:38;;;;;;;9.43;6.18;;;;;;;15.67;100.00;93836.56;5054685;28;20207;-61
2022/05/30 01:50:04;;;;;;;9.23;7.13;;;;;;;15.58;100.00;93842.75;5072469;28;20254;-60
2022/05/30 01:52:31;;;;;;;7.57;6.75;;;;;;;15.51;100.00;93841.88;5072104;28;20681;-61
2022/05/30 01:54:57;;;;;;;12.02;7.85;;;;;;;15.58;100.00;93851.22;5072343;28;20184;-61
2022/05/30 01:57:22;;;;;;;10.15;7.82;;;;;;;15.80;100.00;93846.94;5072412;28;20181;-59
2022/05/30 01:59:48;;;;;;;10.98;7.80;;;;;;;15.76;100.00;93851.63;5072488;28;20761;-59
2022/05/30 02:02:13;;;;;;;9.50;7.65;;;;;;;15.65;100.00;93859.81;5054468;28;20177;-60
2022/05/30 02:04:39;;;;;;;10.02;8.05;;;;;;;15.53;100.00;93853.56;5072099;28;20208;-59
2022/05/30 02:07:05;;;;;;;8.05;7.07;;;;;;;15.40;100.00;93850.78;5072281;28;20669;-61
2022/05/30 02:09:31;;;;;;;11.02;7.38;;;;;;;15.25;100.00;93856.91;5072310;28;20185;-61
2022/05/30 02:11:57;;;;;;;8.48;7.47;;;;;;;15.27;100.00;93862.63;5054196;28;20189;-61
2022/05/30 02:14:23;;;;;;;9.68;6.93;;;;;;;15.34;100.00;93866.88;5054099;28;20613;-61
2022/05/30 02:17:00;;;;;;;8.85;7.07;;;;;;;15.27;100.00;93870.31;5072094;28;20558;-61
2022/05/30 02:19:39;;;;;;;11.18;7.78;;;;;;;15.40;100.00;93861.03;5072223;28;20204;-62
2022/05/30 02:22:06;;;;;;;9.50;8.13;;;;;;;15.35;100.00;93859.97;5053935;28;20176;-62
2022/05/30 02:24:39;;;;;;;9.40;8.40;;;;;;;15.42;100.00;93869.34;5071790;28;20717;-59
2022/05/30 02:27:05;;;;;;;11.98;9.40;;;;;;;15.35;100.00;93872.78;5054946;28;20187;-61
2022/05/30 02:29:31;;;;;;;16.98;9.52;;;;;;;15.49;100.00;93880.50;5072067;28;20226;-62
2022/05/30 02:31:56;;;;;;;11.90;9.88;;;;;;;15.26;100.00;93879.75;5053821;28;20172;-59
2022/05/30 02:37:06;;;;;;;14.50;9.43;;;;;;;15.15;100.00;93880.19;5072044;28;20658;-58
2022/05/30 02:39:31;;;;;;;12.25;9.13;;;;;;;15.44;100.00;93882.78;5071865;28;20200;-61
2022/05/30 02:41:57;;;;;;;12.55;9.80;;;;;;;15.26;100.00;93876.41;5071508;28;20181;-62
2022/05/30 02:44:24;;;;;;;16.45;11.00;;;;;;;14.61;100.00;93882.16;5053539;28;20794;-61
2022/05/30 02:46:55;;;;;;;13.40;10.10;;;;;;;15.03;100.00;93879.84;5071643;28;20177;-61
2022/05/30 02:49:21;;;;;;;12.77;10.07;;;;;;;15.07;100.00;93881.06;5071548;28;20678;-61
2022/05/30 02:51:48;;;;;;;15.30;10.98;;;;;;;15.04;100.00;93885.75;5053519;28;20227;-61
2022/05/30 02:54:14;;;;;;;17.55;12.00;;;;;;;14.82;100.00;93884.84;5071959;28;20653;-58
2022/05/30 02:56:41;;;;;;;15.68;11.43;;;;;;;14.48;100.00;93893.94;5071530;28;20204;-61
2022/05/30 02:59:07;;;;;;;14.45;12.38;;;;;;;14.99;100.00;93888.03;5071869;28;20204;-61
2022/05/30 03:01:34;;;;;;;13.90;11.13;;;;;;;14.91;100.00;93896.59;5071465;28;20668;-59
2022/05/30 03:04:01;;;;;;;15.63;11.25;;;;;;;14.42;100.00;93904.84;5071779;28;20686;-61
2022/05/30 03:06:28;;;;;;;16.23;11.73;;;;;;;14.73;100.00;93908.91;5075704;28;20168;-61
2022/05/30 03:08:56;;;;;;;14.27;10.65;;;;;;;14.85;100.00;93912.66;5075869;28;20231;-57
2022/05/30 03:11:22;;;;;;;12.80;10.75;;;;;;;14.91;100.00;93924.75;5075340;28;20199;-58
2022/05/30 03:13:47;;;;;;;19.10;10.90;;;;;;;14.89;100.00;93931.00;5075858;28;20205;-59
2022/05/30 03:16:13;;;;;;;12.85;10.27;;;;;;;15.23;100.00;93928.75;5075606;28;20176;-58
2022/05/30 03:18:38;;;;;;;17.50;9.90;;;;;;;14.99;100.00;93941.78;5075700;28;20216;-59
2022/05/30 03:21:05;;;;;;;10.50;9.13;;;;;;;15.13;100.00;93946.94;5075812;28;20196;-62
2022/05/30 03:23:31;;;;;;;11.50;8.45;;;;;;;15.23;100.00;93953.59;5075085;28;20251;-61
2022/05/30 03:25:56;;;;;;;12.30;8.52;;;;;;;15.11;100.00;93953.19;5075258;28;20205;-61
2022/05/30 03:28:22;;;;;;;10.27;7.15;;;;;;;15.01;100.00;93958.56;5075486;28;20276;-62
2022/05/30 03:30:47;;;;;;;10.52;7.63;;;;;;;14.79;100.00;93961.97;5057190;28;20169;-62
2022/05/30 03:33:13;;;;;;;10.93;8.13;;;;;;;14.77;100.00;93966.44;5057099;28;20205;-59
2022/05/30 03:35:38;;;;;;;13.00;8.80;;;;;;;14.62;100.00;93973.28;5075129;28;20184;-59
2022/05/30 03:38:05;;;;;;;9.43;7.68;;;;;;;14.80;100.00;93981.47;5075162;28;20262;-59
2022/05/30 03:40:31;;;;;;;10.50;7.80;;;;;;;14.96;100.00;93988.22;5075246;28;20574;-62
2022/05/30 03:42:58;;;;;;;10.80;6.45;;;;;;;14.95;100.00;93995.09;5057018;28;20224;-60
2022/05/30 03:45:24;;;;;;;11.85;7.05;;;;;;;14.92;100.00;93997.22;5056856;28;20623;-61
2022/05/30 03:47:50;;;;;;;10.88;6.50;;;;;;;14.78;100.00;93998.75;5074804;28;20284;-60
2022/05/30 03:50:20;;;;;;;12.57;6.67;;;;;;;14.70;100.00;93998.00;5074843;28;20213;-58
2022/05/30 03:52:45;;;;;;;11.35;7.43;;;;;;;14.72;100.00;94002.00;5074774;28;20209;-61
2022/05/30 03:55:15;;;;;;;16.98;6.68;;;;;;;14.78;100.00;94009.00;5056728;28;20212;-59
2022/05/30 03:57:41;;;;;;;10.60;7.30;;;;;;;14.78;100.00;94003.06;5074362;28;20238;-62
2022/05/30 04:00:19;;;;;;;8.65;7.22;;;;;;;14.79;100.00;94009.75;5074648;28;20177;-61
2022/05/30 04:02:48;;;;;;;7.80;6.82;;;;;;;14.73;100.00;94006.13;5074674;28;20209;-62
2022/05/30 04:05:18;;;;;;;9.57;7.25;;;;;;;14.93;100.00;94012.38;5074511;28;20206;-61
2022/05/30 04:07:44;;;;;;;13.25;7.60;;;;;;;14.95;100.00;94020.69;5074515;28;20213;-61
2022/05/30 04:10:10;;;;;;;11.75;7.70;;;;;;;14.41;100.00;94011.47;5074680;28;20204;-60
2022/05/30 04:12:36;;;;;;;10.68;7.32;;;;;;;14.48;100.00;94021.81;5056541;28;20214;-60
2022/05/30 04:15:03;;;;;;;15.75;7.88;;;;;;;14.04;100.00;94024.06;5074231;28;20601;-60
2022/05/30 04:17:33;;;;;;;9.25;7.72;;;;;;;13.90;100.00;94024.75;5074251;28;20189;-61
2022/05/30 04:19:58;;;;;;;8.45;6.75;;;;;;;13.96;100.00;94021.53;5074303;28;20614;-59
2022/05/30 04:22:23;;;;;;;14.45;7.82;;;;;;;13.90;100.00;94029.88;5073939;28;20256;-62
2022/05/30 04:24:51;;;;;;;11.85;6.78;;;;;;;13.85;100.00;94029.56;5074261;28;20185;-60
2022/05/30 04:27:16;;;;;;;8.15;6.30;;;;;;;13.80;100.00;94031.81;5074107;28;20188;-59
2022/05/30 04:29:41;;;;;;;9.25;6.90;;;;;;;13.97;100.00;94033.38;5073875;28;20193;-59
2022/05/30 04:32:07;;;;;;;13.23;6.50;;;;;;;14.04;100.00;94036.84;5074002;28;20256;-58
2022/05/30 04:34:33;;;;;;;10.25;6.45;;;;;;;14.01;100.00;94044.84;5073927;28;20197;-62
2022/05/30 04:36:59;;;;;;;10.77;6.70;;;;;;;13.84;100.00;94043.28;5073768;28;20188;-62
2022/05/30 04:39:24;;;;;;;11.50;6.30;;;;;;;13.91;100.00;94039.94;5073902;28;20211;-60
2022/05/30 04:41:50;;;;;;;8.33;6.43;;;;;;;14.12;100.00;94042.72;5073718;28;20191;-59
2022/05/30 04:44:16;;;;;;;7.60;5.90;;;;;;;14.22;100.00;94033.09;5074286;28;20300;-59
2022/05/30 04:46:41;;;;;;;8.37;6.63;;;;;;;14.79;100.00;94051.50;5073695;28;20647;-61
2022/05/30 04:49:07;;;;;;;8.50;6.40;;;;;;;14.81;100.00;94047.03;5073966;28;20204;-59
2022/05/30 04:51:33;;;;;;;9.40;6.68;;;;;;;14.87;100.00;94045.53;5055702;28;20173;-59
2022/05/30 04:53:58;;;;;;;6.47;5.65;;;;;;;15.18;100.00;94053.16;5073760;28;20212;-60
2022/05/30 04:56:24;;;;;;;8.75;6.00;;;;;;;15.24;100.00;94055.03;5073324;28;20662;-59
2022/05/30 04:58:50;;;;;;;12.63;7.35;;;;;;;15.19;100.00;94054.75;5073633;28;20201;-60
2022/05/30 05:01:17;;;;;;;8.45;6.60;;;;;;;14.93;100.00;94052.53;5055472;28;20177;-62
2022/05/30 05:03:43;;;;;;;12.17;7.33;;;;;;;15.00;100.00;94048.34;5073276;28;20641;-62
2022/05/30 05:06:14;;;;;;;10.57;6.68;;;;;;;15.34;100.00;94058.16;5073767;28;20264;-62
2022/05/30 05:08:58;;;;;;;12.07;7.63;;;;;;;15.14;100.00;94056.06;5055579;28;20678;-60
2022/05/30 05:11:25;;;;;;;11.95;7.68;;;;;;;15.27;100.00;94065.72;5073392;28;20196;-59
2022/05/30 05:13:52;;;;;;;12.43;7.45;;;;;;;15.49;100.00;94069.25;5055303;28;20701;-63
2022/05/30 05:16:20;;;;;;;12.15;8.25;;;;;;;15.26;100.00;94068.44;5072956;28;20173;-60
2022/05/30 05:18:46;;;;;;;12.10;8.10;;;;;;;15.36;100.00;94079.25;5072980;28;20200;-62
2022/05/30 05:21:22;;;;;;;12.35;8.23;;;;;;;15.56;100.00;94075.25;5072998;28;20564;-59
2022/05/30 05:23:48;;;;;;;13.20;9.52;;;;;;;15.39;100.00;94073.81;5072956;28;20223;-63
2022/05/30 05:26:15;;;;;;;14.63;8.77;;;;;;;15.45;100.00;94080.81;5072951;28;20208;-62
2022/05/30 05:28:41;;;;;;;13.88;8.32;;;;;;;15.62;100.00;94074.56;5072094;28;20201;-60
2022/05/30 05:31:08;;;;;;;13.40;9.75;;;;;;;15.63;100.00;94071.84;5072842;28;20195;-60
2022/05/30 05:33:34;;;;;;;16.60;8.93;;;;;;;15.73;100.00;94069.03;5055130;28;20295;-60
2022/05/30 05:35:59;;;;;;;16.00;9.93;;;;;;;15.69;100.00;94075.47;5072918;28;20270;-59
2022/05/30 05:38:25;;;;;;;17.83;11.95;;;;;;;16.14;100.00;94069.41;5073099;28;20228;-61
2022/05/30 05:40:51;;;;;;;14.73;10.55;;;;;;;16.43;100.00;94075.28;5073020;28;20575;-61
2022/05/30 05:43:17;;;;;;;17.50;10.90;;;;;;;16.47;100.00;94073.97;5072891;28;20208;-62
2022/05/30 05:45:43;;;;;;;14.38;10.20;;;;;;;16.46;100.00;94080.06;5054677;28;20188;-60
2022/05/30 05:48:10;;;;;;;16.80;12.02;;;;;;;16.54;100.00;94082.56;5072777;28;20209;-61
2022/05/30 05:50:43;;;;;;;15.07;11.82;;;;;;;16.55;100.00;94085.91;5072402;28;20200;-60
2022/05/30 05:53:11;;;;;;;16.85;9.93;;;;;;;16.81;100.00;94073.38;5072362;28;20312;-62
2022/05/30 05:55:40;;;;;;;23.85;12.63;;;;;;;17.44;100.00;94075.16;5054321;28;20189;-62
2022/05/30 05:58:06;;;;;;;15.45;11.52;;;;;;;18.00;100.00;94087.06;5072469;28;20197;-61
2022/05/30 06:00:33;;;;;;;15.43;10.75;;;;;;;18.79;100.00;94110.66;5054296;28;20177;-61
2022/05/30 06:02:58;;;;;;;15.30;10.55;;;;;;;19.27;100.00;94107.00;5072378;28;20560;-60
2022/05/30 06:05:25;;;;;;;15.25;10.30;;;;;;;19.75;100.00;94125.75;5071975;28;20252;-59
2022/05/30 06:07:50;;;;;;;12.75;10.38;;;;;;;20.05;100.00;94132.88;5072260;28;20692;-60
2022/05/30 06:10:16;;;;;;;19.60;12.20;;;;;;;20.04;100.00;94176.94;5072017;28;20176;-59
2022/05/30 06:12:45;;;;;;;16.10;11.98;;;;;;;20.00;100.00;94113.81;5071995;28;20278;-59
2022/05/30 06:15:14;;;;;;;13.18;9.75;;;;;;;20.28;100.00;94118.78;5071989;28;20173;-58
2022/05/30 06:17:43;;;;;;;15.38;11.52;;;;;;;20.51;100.00;94150.09;5072137;28;20212;-60
2022/05/30 06:20:10;;;;;;;18.80;12.55;;;;;;;20.96;100.00;94187.94;5072145;28;20176;-59
2022/05/30 06:22:36;;;;;;;15.43;11.80;;;;;;;21.07;100.00;94152.94;5071718;28;20185;-59
2022/05/30 06:25:03;;;;;;;12.13;10.45;;;;;;;21.39;100.00;94201.91;5071775;28;20663;-59
2022/05/30 06:27:29;;;;;;;13.07;10.68;;;;;;;21.50;100.00;94206.44;5071598;28;20192;-60
2022/05/30 06:29:54;;;;;;;16.52;11.93;;;;;;;21.58;100.00;94270.88;5071779;28;20169;-58
2022/05/30 06:32:20;;;;;;;14.02;10.60;;;;;;;21.36;100.00;94180.84;5071730;28;20267;-59
2022/05/30 06:34:45;;;;;;;11.90;10.05;;;;;;;21.15;100.00;94158.66;5053684;28;20674;-58
2022/05/30 06:37:11;;;;;;;12.48;10.70;;;;;;;21.29;100.00;94160.16;5071627;28;20630;-58
2022/05/30 06:39:38;;;;;;;13.05;10.75;;;;;;;21.50;100.00;94180.56;5071826;28;20196;-58
2022/05/30 06:42:13;;;;;;;13.05;10.73;;;;;;;21.50;100.00;94182.34;5071535;28;20181;-58
2022/05/30 06:44:40;;;;;;;17.55;12.05;;;;;;;21.46;100.00;94254.41;5071425;28;20237;-59
2022/05/30 06:47:09;;;;;;;13.52;9.75;;;;;;;20.81;100.00;94151.22;5071599;28;20727;-60
2022/05/30 06:49:35;;;;;;;14.82;12.63;;;;;;;20.71;100.00;94148.25;5071566;28;20199;-59
2022/05/30 06:52:00;;;;;;;13.43;10.40;;;;;;;20.38;100.00;94135.44;5071472;28;20173;-59
2022/05/30 06:54:26;;;;;;;13.35;11.65;;;;;;;20.39;100.00;94118.16;5072021;28;20223;-59
2022/05/30 06:59:36;;;;;;;15.10;11.48;;;;;;;21.16;100.00;94175.75;5071657;28;20274;-61
2022/05/30 07:02:04;;;;;;;53.88;36.78;;;;;;;21.39;100.00;94183.03;5053450;28;20177;-61
2022/05/30 07:04:31;;;;;;;15.55;11.95;;;;;;;21.57;100.00;94176.13;5071307;28;20208;-58
2022/05/30 07:06:57;;;;;;;13.20;11.05;;;;;;;21.65;100.00;94194.00;5071282;28;20646;-61
2022/05/30 07:09:22;;;;;;;16.33;12.27;;;;;;;21.48;100.00;94179.19;5053127;28;20219;-59
2022/05/30 07:11:49;;;;;;;15.82;11.70;;;;;;;21.22;100.00;94151.66;5080978;22;20161;-59
2022/05/30 07:14:16;;;;;;;13.02;11.65;;;;;;;20.77;100.00;94183.63;5091544;28;20196;-59
2022/05/30 07:16:43;;;;;;;12.40;11.10;;;;;;;20.63;100.00;94177.69;5091495;28;20549;-60
2022/05/30 07:19:09;;;;;;;15.30;12.20;;;;;;;20.17;100.00;94117.56;5091324;28;20245;-60
2022/05/30 07:21:36;;;;;;;13.48;11.73;;;;;;;20.37;100.00;94109.81;5091736;28;20265;-60
2022/05/30 07:24:01;;;;;;;14.38;11.65;;;;;;;20.03;100.00;94103.09;5091346;28;20200;-60
2022/05/30 07:26:27;;;;;;;16.55;11.63;;;;;;;19.77;100.00;94134.88;5091628;28;20183;-62
2022/05/30 07:28:52;;;;;;;16.65;11.45;;;;;;;19.81;100.00;94171.38;5091379;28;20237;-62
2022/05/30 07:31:20;;;;;;;14.43;11.18;;;;;;;19.58;100.00;94181.28;5091506;28;20657;-61
2022/05/30 07:33:48;;;;;;;15.32;11.05;;;;;;;19.51;100.00;94170.97;5091415;28;20291;-61
2022/05/30 07:36:34;;;;;;;13.60;10.60;;;;;;;19.21;100.00;94130.97;5091368;28;20172;-62
2022/05/30 07:38:59;;;;;;;14.13;11.23;;;;;;;19.12;100.00;94114.94;5090971;28;20717;-61
2022/05/30 07:41:28;;;;;;;13.52;10.02;;;;;;;19.15;100.00;94139.50;5091431;28;20506;-63
2022/05/30 07:43:53;;;;;;;15.32;10.90;;;;;;;19.52;100.00;94151.91;5091189;28;20257;-65
2022/05/30 07:46:20;;;;;;;14.88;11.48;;;;;;;20.12;100.00;94153.50;5091250;28;20177;-63
2022/05/30 07:48:46;;;;;;;13.80;10.30;;;;;;;19.96;100.00;94141.81;5072909;28;20624;-62
2022/05/30 07:51:13;;;;;;;14.13;10.60;;;;;;;19.27;100.00;94137.94;5093418;28;20184;-59
2022/05/30 07:53:40;;;;;;;14.48;11.00;;;;;;;19.17;100.00;94132.38;5094851;28;20674;-60
2022/05/30 07:56:08;;;;;;;17.45;10.60;;;;;;;19.36;100.00;94157.44;5095022;28;20172;-62
2022/05/30 07:58:34;;;;;;;16.15;10.88;;;;;;;19.31;100.00;94164.91;5094788;28;20192;-62
2022/05/30 08:01:00;;;;;;;10.70;9.60;;;;;;;19.65;100.00;94195.78;5094931;28;20631;-63
2022/05/30 08:03:28;;;;;;;13.82;10.65;;;;;;;19.87;100.00;94175.75;5094873;28;20227;-62
2022/05/30 08:06:19;;;;;;;15.13;10.55;;;;;;;20.18;100.00;94182.91;5094691;28;20188;-60
2022/05/30 08:08:45;;;;;;;13.40;11.10;;;;;;;20.21;100.00;94172.19;5094767;28;20689;-61
2022/05/30 08:11:11;;;;;;;15.32;11.02;;;;;;;20.30;100.00;94181.34;5102190;22;20319;-61
2022/05/30 08:13:38;;;;;;;13.55;10.57;;;;;;;20.70;100.00;94204.31;5076324;28;20760;-61
2022/05/30 08:16:04;;;;;;;14.57;10.82;;;;;;;20.78;100.00;94192.97;5095040;28;20176;-62
2022/05/30 08:18:31;;;;;;;13.43;9.73;;;;;;;20.80;100.00;94159.97;5094367;28;20235;-60
2022/05/30 08:20:57;;;;;;;17.60;10.63;;;;;;;20.86;100.00;94159.16;5094798;28;20208;-62
2022/05/30 08:23:23;;;;;;;16.83;11.40;;;;;;;20.93;100.00;94201.25;5094456;28;20641;-60
2022/05/30 08:25:50;;;;;;;14.13;10.68;;;;;;;20.52;100.00;94242.09;5094751;28;20272;-62
2022/05/30 08:28:15;;;;;;;17.85;11.98;;;;;;;20.55;100.00;94211.50;5076159;28;20203;-61
2022/05/30 08:30:42;;;;;;;13.10;9.55;;;;;;;20.80;100.00;94204.69;5094185;28;20263;-60
2022/05/30 08:33:15;;;;;;;12.63;9.52;;;;;;;20.47;100.00;94187.66;5094334;28;20665;-62
2022/05/30 08:35:41;;;;;;;11.38;9.07;;;;;;;20.76;100.00;94239.69;5094755;28;20646;-62
2022/05/30 08:38:07;;;;;;;13.63;8.80;;;;;;;21.28;100.00;94197.38;5075999;28;20188;-63
2022/05/30 08:43:29;;;;;;;11.15;8.68;;;;;;;20.96;100.00;94218.97;5094275;28;20261;-62
2022/05/30 08:46:06;;;;;;;10.50;8.07;;;;;;;21.03;100.00;94250.00;5095068;28;20630;-60
2022/05/30 08:49:11;;;;;;;11.05;8.00;;;;;;;21.34;100.00;94237.16;5094287;28;20677;-62
2022/05/30 08:51:45;;;;;;;10.52;8.25;;;;;;;21.45;100.00;94246.88;5063520;28;20297;-62
2022/05/30 08:54:38;;;;;;;13.02;8.93;;;;;;;21.56;100.00;94248.78;5093944;28;20276;-62
2022/05/30 08:57:10;;;;;;;12.45;8.32;;;;;;;21.42;98.73;94297.19;5094257;28;20161;-63
2022/05/30 08:59:48;;;;;;;10.50;7.63;;;;;;;21.56;97.53;94301.31;5075538;28;20753;-60
2022/05/30 09:02:22;;;;;;;10.77;8.25;;;;;;;21.76;96.06;94303.81;5092750;28;20160;-59
2022/05/30 09:04:58;;;;;;;11.70;7.88;;;;;;;22.33;91.74;94378.06;5094085;28;20223;-63
2022/05/30 09:07:31;;;;;;;11.68;8.10;;;;;;;22.22;97.62;94257.75;5093852;28;20164;-62
2022/05/30 09:10:03;;;;;;;11.75;7.80;;;;;;;22.45;97.86;94267.56;5093821;28;20217;-62
2022/05/30 09:12:37;;;;;;;15.95;7.18;;;;;;;22.02;97.78;94261.50;5093436;28;20185;-62
2022/05/30 09:15:03;;;;;;;8.90;6.43;;;;;;;22.37;97.28;94280.78;5094051;28;20183;-60
2022/05/30 09:17:58;;;;;;;6.68;5.85;;;;;;;22.52;94.86;94315.72;5093787;28;20180;-60
2022/05/30 09:20:24;;;;;;;9.38;6.22;;;;;;;23.18;92.92;94331.56;5093456;28;20235;-60
2022/05/30 09:22:50;;;;;;;7.18;6.32;;;;;;;22.73;87.54;94392.38;5093220;28;20715;-61
2022/05/30 09:28:08;;;;;;;11.15;6.90;;;;;;;23.06;93.57;94271.03;5093505;28;20701;-61
2022/05/30 09:30:56;;;;;;;8.55;5.78;;;;;;;22.43;84.72;94420.66;5093664;28;20180;-63
2022/05/30 09:33:39;;;;;;;6.18;5.57;;;;;;;23.02;90.20;94311.38;5093337;28;20228;-62
2022/05/30 09:36:24;;;;;;;11.07;6.28;;;;;;;23.21;90.44;94322.56;5075277;28;20180;-60
2022/05/30 09:39:15;;;;;;;9.15;5.57;;;;;;;23.54;86.34;94407.88;5093017;28;20208;-60
2022/05/30 09:41:41;;;;;;;9.30;5.80;;;;;;;23.38;84.85;94413.63;5092751;28;20204;-62
2022/05/30 09:44:21;;;;;;;10.93;6.13;;;;;;;23.26;84.38;94401.34;5092489;28;20251;-61
2022/05/30 09:46:58;;;;;;;8.45;6.93;;;;;;;23.17;84.51;94381.03;5092780;28;20168;-59
2022/05/30 09:49:27;;;;;;;9.32;6.00;;;;;;;23.38;87.40;94328.00;5092742;28;20214;-59
2022/05/30 09:51:55;;;;;;;9.20;5.78;;;;;;;23.99;86.43;94344.25;5074624;28;20188;-59
2022/05/30 09:54:23;;;;;;;9.20;6.07;;;;;;;24.10;85.48;94354.72;5092826;28;20678;-61
2022/05/30 09:56:52;;;;;;;10.25;6.38;;;;;;;24.61;81.62;94354.22;5074431;28;20176;-63
2022/05/30 09:59:23;;;;;;;10.68;6.63;;;;;;;24.10;77.67;94408.47;5092596;28;20235;-60
2022/05/30 10:01:51;;;;;;;6.72;5.57;;;;;;;24.28;73.92;94426.63;5092649;28;20650;-63
2022/05/30 10:04:19;;;;;;;12.20;6.72;;;;;;;24.12;72.96;94427.25;5074113;28;20606;-61
2022/05/30 10:07:05;;;;;;;11.60;6.40;;;;;;;24.87;74.28;94379.03;5092463;28;20195;-61
2022/05/30 10:09:33;;;;;;;9.57;6.35;;;;;;;24.82;70.96;94434.34;5107951;22;20224;-62
2022/05/30 10:11:59;;;;;;;6.43;5.72;;;;;;;24.68;68.83;94448.53;5092166;28;20222;-59
2022/05/30 10:14:29;;;;;;;9.27;6.05;;;;;;;24.99;72.07;94362.44;5092330;28;20236;-61
2022/05/30 10:17:15;;;;;;;10.63;6.13;;;;;;;24.67;65.08;94470.34;5092442;28;20244;-61
2022/05/30 10:19:48;;;;;;;9.02;5.68;;;;;;;24.20;66.54;94398.34;5092568;28;20207;-62
2022/05/30 10:28:50;;;;;;;6.65;5.38;;;;;;;25.64;65.77;94399.59;5091979;28;20215;-65
2022/05/30 10:31:55;;;;;;;8.48;5.97;;;;;;;25.53;65.28;94428.25;5092059;28;20164;-63
2022/05/30 10:34:38;;;;;;;8.80;5.18;;;;;;;26.13;61.05;94499.13;5092163;28;20200;-64
2022/05/30 10:37:30;;;;;;;7.20;4.68;;;;;;;25.70;60.60;94479.41;5092050;28;20698;-62
2022/05/30 10:40:22;;;;;;;7.35;5.57;;;;;;;25.78;61.05;94480.88;5080714;28;20203;-61
2022/05/30 10:42:59;;;;;;;5.55;4.72;;;;;;;25.85;58.49;94506.81;5091266;28;20706;-63
2022/05/30 10:45:32;;;;;;;5.57;4.95;;;;;;;26.49;61.42;94412.78;5074112;28;20180;-63
2022/05/30 10:47:58;;;;;;;5.72;4.68;;;;;;;26.30;57.40;94508.63;5091843;28;20192;-61
2022/05/30 10:50:46;;;;;;;9.38;5.35;;;;;;;26.67;56.46;94510.91;5092037;28;20175;-63
2022/05/30 10:53:18;;;;;;;8.40;4.85;;;;;;;27.08;55.42;94540.19;5092005;28;20192;-62
2022/05/30 10:55:48;;;;;;;8.23;4.30;;;;;;;27.04;55.84;94486.06;5092136;28;20177;-65
2022/05/30 10:58:46;;;;;;;11.30;5.10;;;;;;;26.71;57.64;94449.41;5092196;28;20246;-65
2022/05/30 11:01:30;;;;;;;6.95;4.65;;;;;;;25.99;54.69;94523.81;5040680;28;20268;-62
2022/05/30 11:04:13;;;;;;;8.63;4.97;;;;;;;25.47;57.67;94426.56;5091809;28;20223;-63
2022/05/30 11:06:42;;;;;;;7.65;5.03;;;;;;;25.60;56.56;94462.78;5091693;28;20221;-63
2022/05/30 11:09:40;;;;;;;8.60;5.32;;;;;;;26.35;55.16;94487.88;5092149;28;20207;-62
2022/05/30 11:12:15;;;;;;;9.30;5.03;;;;;;;26.93;53.50;94528.66;5092049;28;20192;-64
2022/05/30 11:15:06;;;;;;;8.65;5.05;;;;;;;27.38;53.50;94519.03;5092252;28;20261;-62
2022/05/30 11:17:57;;;;;;;11.40;4.88;;;;;;;27.04;53.24;94520.00;5082409;28;20192;-63
2022/05/30 11:20:33;;;;;;;10.10;5.28;;;;;;;27.76;52.44;94526.16;5091867;28;20325;-62
2022/05/30 11:22:59;;;;;;;7.47;4.25;;;;;;;27.41;47.94;94639.50;5073625;28;20669;-63
2022/05/30 11:25:40;;;;;;;8.65;4.82;;;;;;;27.26;49.36;94584.38;5074447;28;20178;-61
2022/05/30 11:28:21;;;;;;;7.93;4.38;;;;;;;26.93;49.69;94554.75;5077543;28;20204;-61
2022/05/30 11:31:01;;;;;;;8.20;4.90;;;;;;;26.71;51.94;94491.97;5095686;28;20160;-63
2022/05/30 11:33:47;;;;;;;7.78;4.22;;;;;;;26.83;49.40;94571.00;5095688;28;20206;-62
2022/05/30 11:36:37;;;;;;;8.70;4.65;;;;;;;27.28;48.30;94587.53;5095671;28;20172;-60
2022/05/30 11:39:31;;;;;;;5.88;4.47;;;;;;;27.16;46.94;94614.72;5095859;28;20211;-64
2022/05/30 11:42:27;;;;;;;7.90;4.32;;;;;;;27.84;47.13;94602.38;5095615;28;20169;-64
2022/05/30 11:44:59;;;;;;;6.22;4.35;;;;;;;28.41;47.68;94581.25;5095210;28;20294;-62
2022/05/30 11:47:39;;;;;;;10.43;4.60;;;;;;;28.36;46.60;94587.25;5077230;28;20753;-64
2022/05/30 11:50:20;;;;;;;8.55;4.50;;;;;;;28.55;46.14;94593.78;5095983;28;20590;-64
2022/05/30 11:53:07;;;;;;;7.55;4.55;;;;;;;28.61;46.25;94586.78;5076865;28;20332;-64